HSKAHSSJ

Guest
Details From HSKA - KASSALA
To HSSJ - JUBA
Flight Number -
Tags generated
Created
Modified
Stats Distance 813 nm / 1,505 km
Max Altitude 34,000 ft / 10,363 m
Waypoints 9
Social Downloads 0
Likes 0
Share VATSIM

Download

Looking for another format? Having issues loading an existing format? Contact us
Advertisement - Login to hide

Notes

Basic altitude profile: - Ascent Rate: 2500ft/min - Ascent Speed: 250kts - Cruise Altitude: 35000ft - Cruise Speed: 420kts - Descent Rate: 1500ft/min - Descent Speed: 250kts Options: - Use NATs: yes - Use PACOTS: yes - Use low airways: yes - Use high airways: yes

Route

HSKA KASLA B526 DENDI EMITA GAGNI RABAK UB527D MLK B527D JUB HSSJ

ID Type Via Altitude Latitude Longitude Leg Dist Tot Dist Heading (true) Name
O HSKA APT - 0 ft / 0 m 15.38589˚ 36.32817˚ - 0 nm - KASSALA
KASLA FIX - 500 ft / 152 m 15.36333˚ 36.31667˚ 1 nm 1 nm 206° / 206° -
DENDI FIX B526 (AWY-LO) 24,500 ft / 7,468 m 15.48128˚ 34.27742˚ 118 nm 119 nm 274° / 273° -
EMITA FIX - 34,000 ft / 10,363 m 14.35869˚ 33.74577˚ 74 nm 193 nm 205° / 205° -
GAGNI FIX - 34,000 ft / 10,363 m 13.90753˚ 32.78499˚ 62 nm 256 nm 244° / 244° -
RABAK FIX - 34,000 ft / 10,363 m 13.01949˚ 32.16604˚ 64 nm 320 nm 214° / 214° -
MLK VOR UB527D (AWY-HI) 34,000 ft / 10,363 m 9.56317˚ 31.65317˚ 209 nm 530 nm 188° / 188° MALAKAL VOR-DME
JUB VOR B527D (AWY-LO) 7,500 ft / 2,286 m 4.88866˚ 31.58150˚ 280 nm 811 nm 181° / 181° JUBA VOR-DME
O HSSJ APT - 0 ft / 0 m 4.87201˚ 31.60112˚ 1 nm 812 nm 130° / 130° JUBA

Altitude Profile

Advertisement - Login to hide

Weather


0- 5 10 15 20 25 30 35+ Temperature / ° C

Clouds and Precipitation
Forecast for 2017-12-13 18:00 UTC. Updated 2 hours ago

Ground ~20,000 ft ~40,000 ft Winds

HSKA

Details ICAO HSKA (KSL)
Name KASSALA
Region Sudan and South Sudan
Timezone Africa/Khartoum (UTC+3.0)
Stats Elevation 1,671 ft / 509 m (AMSL)
Location 15.385886° 36.328170°
Runways 1
Magnetic Variation 3.207° E

METAR

Not found

TAF

TAF TAF HSKA 130500Z 1306/1412 VRB03KT CAVOK

Decode

Departure Runways

ID Width Length Bearing (true) Bearing (mag) Surface Threshold Offset Overrun Length
02 148 ft / 45 m 8,234 ft / 2,510 m 21.91° 18.70° Asphalt 0 ft / 0 m 215 ft / 66 m
20 148 ft / 45 m 8,234 ft / 2,510 m 201.91° 198.70° Asphalt 0 ft / 0 m 185 ft / 56 m

HSSJ

Details ICAO HSSJ (JUB)
Name JUBA
Region Sudan and South Sudan
Timezone Africa/Khartoum (UTC+3.0)
Stats Elevation 1,513 ft / 461 m (AMSL)
Location 4.872009° 31.601115°
Runways 1
Magnetic Variation 2.396° E

METAR

Not found

TAF

TAF TAF HSSJ 131000Z 1312/1418 08004KT CAVOK TEMPO 1312/1318 03004KT

Decode

Destination Runways

ID Width Length Bearing (true) Bearing (mag) Surface Threshold Offset Overrun Length
13 148 ft / 45 m 7,891 ft / 2,405 m 130.41° 128.01° Asphalt 0 ft / 0 m 200 ft / 61 m
31 148 ft / 45 m 7,891 ft / 2,405 m 310.41° 308.01° Asphalt 0 ft / 0 m 200 ft / 61 m